Gwalior, Gwalior Airport (VIGR)

NameGwalior Airport
CityGwalior
CountryIndia
ICAOVIGR
IATAGWL
Altitude188 m
CoordinatesGoogle Map
Live Air TrafficLiveATC.net
METARVIGR 011030Z 29012KT 6000 FEW030 SCT250 40/20 Q0995 NOSIG
2019-07-01 10:30:00 Wind: West (290°) 6.17 m/s - Visibility: 6000 m - Temperature: 40 °C - Dew point: 20 °C - Humidity: 31.3% - Pressure: 0995 hPa
Statistics

The table below shows the detailed information of all flights to/from Gwalior, Gwalior Airport (VIGR).